sensor_id;sensor_type;location;lat;lon;timestamp;pressure;altitude;pressure_sealevel;temperature;humidity
8637;BME280;4356;49.068;8.658;2023-04-21T00:01:22;99561.28;;;17.59;37.96
8637;BME280;4356;49.068;8.658;2023-04-21T00:03:48;99557.97;;;17.57;38.03
8637;BME280;4356;49.068;8.658;2023-04-21T00:06:14;99557.50;;;17.60;38.05
8637;BME280;4356;49.068;8.658;2023-04-21T00:08:47;99558.78;;;17.58;38.07
8637;BME280;4356;49.068;8.658;2023-04-21T00:11:12;99564.19;;;17.58;37.89
8637;BME280;4356;49.068;8.658;2023-04-21T00:13:39;99555.69;;;17.54;38.12
8637;BME280;4356;49.068;8.658;2023-04-21T00:16:05;99568.00;;;17.57;38.10
8637;BME280;4356;49.068;8.658;2023-04-21T00:18:31;99549.63;;;17.52;37.71
8637;BME280;4356;49.068;8.658;2023-04-21T00:20:57;99547.13;;;17.51;37.91
8637;BME280;4356;49.068;8.658;2023-04-21T00:23:22;99555.91;;;17.53;37.94
8637;BME280;4356;49.068;8.658;2023-04-21T00:25:48;99544.25;;;17.45;38.01
8637;BME280;4356;49.068;8.658;2023-04-21T00:28:13;99553.63;;;17.50;38.12
8637;BME280;4356;49.068;8.658;2023-04-21T00:30:39;99548.84;;;17.45;38.05
8637;BME280;4356;49.068;8.658;2023-04-21T00:33:05;99557.63;;;17.47;38.03
8637;BME280;4356;49.068;8.658;2023-04-21T00:35:30;99551.78;;;17.43;38.06
8637;BME280;4356;49.068;8.658;2023-04-21T00:37:56;99541.38;;;17.40;37.81
8637;BME280;4356;49.068;8.658;2023-04-21T00:40:22;99538.66;;;17.40;37.83
8637;BME280;4356;49.068;8.658;2023-04-21T00:42:47;99535.94;;;17.40;38.06
8637;BME280;4356;49.068;8.658;2023-04-21T00:45:13;99541.00;;;17.37;38.13
8637;BME280;4356;49.068;8.658;2023-04-21T00:47:42;99545.97;;;17.40;37.74
8637;BME280;4356;49.068;8.658;2023-04-21T00:50:09;99542.22;;;17.41;38.06
8637;BME280;4356;49.068;8.658;2023-04-21T00:52:35;99535.56;;;17.37;38.09
8637;BME280;4356;49.068;8.658;2023-04-21T00:55:02;99536.16;;;17.39;37.89
8637;BME280;4356;49.068;8.658;2023-04-21T00:57:27;99524.06;;;17.35;38.42
8637;BME280;4356;49.068;8.658;2023-04-21T00:59:54;99527.22;;;17.32;38.23
8637;BME280;4356;49.068;8.658;2023-04-21T01:02:20;99520.38;;;17.29;38.02
8637;BME280;4356;49.068;8.658;2023-04-21T01:04:47;99524.69;;;17.37;37.96
8637;BME280;4356;49.068;8.658;2023-04-21T01:07:13;99522.41;;;17.34;38.28
8637;BME280;4356;49.068;8.658;2023-04-21T01:09:38;99518.25;;;17.31;37.78
8637;BME280;4356;49.068;8.658;2023-04-21T01:12:06;99513.44;;;17.33;37.86
8637;BME280;4356;49.068;8.658;2023-04-21T01:14:33;99518.25;;;17.31;38.02
8637;BME280;4356;49.068;8.658;2023-04-21T01:16:58;99519.28;;;17.30;37.81
8637;BME280;4356;49.068;8.658;2023-04-21T01:19:25;99521.78;;;17.32;37.82
8637;BME280;4356;49.068;8.658;2023-04-21T01:21:53;99508.66;;;17.29;37.83
8637;BME280;4356;49.068;8.658;2023-04-21T01:24:22;99520.13;;;17.31;38.00
8637;BME280;4356;49.068;8.658;2023-04-21T01:26:49;99513.72;;;17.25;37.90
8637;BME280;4356;49.068;8.658;2023-04-21T01:29:15;99515.97;;;17.28;38.09
8637;BME280;4356;49.068;8.658;2023-04-21T01:31:41;99523.31;;;17.28;37.96
8637;BME280;4356;49.068;8.658;2023-04-21T01:34:07;99511.47;;;17.22;37.82
8637;BME280;4356;49.068;8.658;2023-04-21T01:36:35;99506.03;;;17.22;38.05
8637;BME280;4356;49.068;8.658;2023-04-21T01:39:01;99521.03;;;17.25;38.12
8637;BME280;4356;49.068;8.658;2023-04-21T01:41:28;99533.56;;;17.26;38.03
8637;BME280;4356;49.068;8.658;2023-04-21T01:43:54;99529.16;;;17.25;37.95
8637;BME280;4356;49.068;8.658;2023-04-21T01:46:19;99527.75;;;17.22;37.88
8637;BME280;4356;49.068;8.658;2023-04-21T01:48:45;99527.13;;;17.20;37.82
8637;BME280;4356;49.068;8.658;2023-04-21T01:51:11;99520.25;;;17.18;37.88
8637;BME280;4356;49.068;8.658;2023-04-21T01:53:36;99522.97;;;17.18;37.79
8637;BME280;4356;49.068;8.658;2023-04-21T01:56:02;99522.31;;;17.22;37.76
8637;BME280;4356;49.068;8.658;2023-04-21T01:58:28;99514.81;;;17.18;37.90
8637;BME280;4356;49.068;8.658;2023-04-21T02:00:53;99515.88;;;17.17;37.75
8637;BME280;4356;49.068;8.658;2023-04-21T02:03:19;99527.38;;;17.19;38.12
8637;BME280;4356;49.068;8.658;2023-04-21T02:05:45;99514.06;;;17.11;37.82
8637;BME280;4356;49.068;8.658;2023-04-21T02:08:11;99528.00;;;17.14;38.02
8637;BME280;4356;49.068;8.658;2023-04-21T02:10:37;99528.25;;;17.13;37.68
8637;BME280;4356;49.068;8.658;2023-04-21T02:13:03;99526.97;;;17.15;38.04
8637;BME280;4356;49.068;8.658;2023-04-21T02:15:28;99531.78;;;17.13;37.75
8637;BME280;4356;49.068;8.658;2023-04-21T02:17:54;99543.28;;;17.15;37.86
8637;BME280;4356;49.068;8.658;2023-04-21T02:20:19;99535.31;;;17.14;38.31
8637;BME280;4356;49.068;8.658;2023-04-21T02:22:45;99544.06;;;17.16;37.80
8637;BME280;4356;49.068;8.658;2023-04-21T02:25:11;99522.03;;;17.06;37.85
8637;BME280;4356;49.068;8.658;2023-04-21T02:27:36;99548.09;;;17.13;37.71
8637;BME280;4356;49.068;8.658;2023-04-21T02:30:02;99527.09;;;17.02;37.83
8637;BME280;4356;49.068;8.658;2023-04-21T02:32:28;99549.34;;;17.11;37.75
8637;BME280;4356;49.068;8.658;2023-04-21T02:34:53;99538.72;;;17.09;38.05
8637;BME280;4356;49.068;8.658;2023-04-21T02:37:20;99540.59;;;17.09;37.99
8637;BME280;4356;49.068;8.658;2023-04-21T02:39:46;99539.97;;;17.07;37.85
8637;BME280;4356;49.068;8.658;2023-04-21T02:42:12;99544.16;;;17.09;37.75
8637;BME280;4356;49.068;8.658;2023-04-21T02:44:37;99527.13;;;16.96;37.93
8637;BME280;4356;49.068;8.658;2023-04-21T02:47:03;99519.81;;;16.96;37.89
8637;BME280;4356;49.068;8.658;2023-04-21T02:49:29;99522.31;;;16.98;37.89
8637;BME280;4356;49.068;8.658;2023-04-21T02:51:54;99529.56;;;17.04;37.94
8637;BME280;4356;49.068;8.658;2023-04-21T02:54:20;99537.50;;;17.05;37.87
8637;BME280;4356;49.068;8.658;2023-04-21T02:56:45;99541.03;;;17.06;37.89
8637;BME280;4356;49.068;8.658;2023-04-21T02:59:11;99516.47;;;16.94;37.85
8637;BME280;4356;49.068;8.658;2023-04-21T03:01:40;99544.78;;;17.05;37.84
8637;BME280;4356;49.068;8.658;2023-04-21T03:04:06;99536.06;;;17.03;37.92
8637;BME280;4356;49.068;8.658;2023-04-21T03:06:32;99532.06;;;17.05;37.75
8637;BME280;4356;49.068;8.658;2023-04-21T03:08:58;99526.25;;;17.02;37.83
8637;BME280;4356;49.068;8.658;2023-04-21T03:11:23;99518.16;;;16.95;37.68
8637;BME280;4356;49.068;8.658;2023-04-21T03:13:49;99523.97;;;16.99;37.80
8637;BME280;4356;49.068;8.658;2023-04-21T03:16:15;99531.66;;;17.02;37.80
8637;BME280;4356;49.068;8.658;2023-04-21T03:18:41;99520.44;;;16.98;37.70
8637;BME280;4356;49.068;8.658;2023-04-21T03:21:08;99505.84;;;16.93;37.73
8637;BME280;4356;49.068;8.658;2023-04-21T03:23:34;99502.53;;;16.91;37.67
8637;BME280;4356;49.068;8.658;2023-04-21T03:26:05;99518.94;;;17.02;37.92
8637;BME280;4356;49.068;8.658;2023-04-21T03:28:31;99502.13;;;16.87;37.65
8637;BME280;4356;49.068;8.658;2023-04-21T03:30:56;99522.09;;;16.99;38.24
8637;BME280;4356;49.068;8.658;2023-04-21T03:33:22;99526.25;;;17.02;37.77
8637;BME280;4356;49.068;8.658;2023-04-21T03:35:48;99517.72;;;16.98;37.59
8637;BME280;4356;49.068;8.658;2023-04-21T03:38:13;99514.59;;;16.95;37.49
8637;BME280;4356;49.068;8.658;2023-04-21T03:40:39;99519.16;;;17.01;37.89
8637;BME280;4356;49.068;8.658;2023-04-21T03:43:05;99516.69;;;16.99;37.72
8637;BME280;4356;49.068;8.658;2023-04-21T03:45:30;99509.19;;;16.95;38.00
8637;BME280;4356;49.068;8.658;2023-04-21T03:47:56;99510.25;;;16.94;37.78
8637;BME280;4356;49.068;8.658;2023-04-21T03:50:22;99513.34;;;16.97;37.98
8637;BME280;4356;49.068;8.658;2023-04-21T03:52:48;99507.06;;;16.97;37.74
8637;BME280;4356;49.068;8.658;2023-04-21T03:55:13;99509.56;;;16.98;37.87
8637;BME280;4356;49.068;8.658;2023-04-21T03:57:40;99514.16;;;16.98;37.78
8637;BME280;4356;49.068;8.658;2023-04-21T04:00:09;99510.03;;;16.95;37.64
8637;BME280;4356;49.068;8.658;2023-04-21T04:02:35;99500.25;;;16.88;37.62
8637;BME280;4356;49.068;8.658;2023-04-21T04:05:02;99521.25;;;16.99;37.84
8637;BME280;4356;49.068;8.658;2023-04-21T04:07:31;99511.44;;;16.98;37.69
8637;BME280;4356;49.068;8.658;2023-04-21T04:09:56;99508.13;;;16.96;37.58
8637;BME280;4356;49.068;8.658;2023-04-21T04:12:22;99512.06;;;17.00;37.83
8637;BME280;4356;49.068;8.658;2023-04-21T04:14:47;99498.78;;;16.92;37.88
8637;BME280;4356;49.068;8.658;2023-04-21T04:17:13;99491.81;;;16.96;37.92
8637;BME280;4356;49.068;8.658;2023-04-21T04:19:39;99496.44;;;16.95;37.96
8637;BME280;4356;49.068;8.658;2023-04-21T04:22:04;99507.91;;;16.97;37.80
8637;BME280;4356;49.068;8.658;2023-04-21T04:24:32;99505.63;;;16.94;37.86
8637;BME280;4356;49.068;8.658;2023-04-21T04:26:58;99513.34;;;16.97;37.94
8637;BME280;4356;49.068;8.658;2023-04-21T04:29:24;99514.16;;;16.98;37.65
8637;BME280;4356;49.068;8.658;2023-04-21T04:31:51;99512.34;;;16.92;37.66
8637;BME280;4356;49.068;8.658;2023-04-21T04:34:17;99517.31;;;16.95;37.90
8637;BME280;4356;49.068;8.658;2023-04-21T04:36:43;99519.81;;;16.96;37.75
8637;BME280;4356;49.068;8.658;2023-04-21T04:39:09;99493.38;;;16.85;37.44
8637;BME280;4356;49.068;8.658;2023-04-21T04:41:36;99524.22;;;16.97;37.60
8637;BME280;4356;49.068;8.658;2023-04-21T04:44:02;99523.38;;;16.97;37.63
8637;BME280;4356;49.068;8.658;2023-04-21T04:46:29;99502.91;;;16.94;37.71
8637;BME280;4356;49.068;8.658;2023-04-21T04:48:55;99501.50;;;16.92;37.85
8637;BME280;4356;49.068;8.658;2023-04-21T04:51:23;99494.06;;;16.81;37.65
8637;BME280;4356;49.068;8.658;2023-04-21T04:53:48;99520.03;;;16.95;37.80
8637;BME280;4356;49.068;8.658;2023-04-21T04:56:14;99520.50;;;16.92;37.71
8637;BME280;4356;49.068;8.658;2023-04-21T04:58:40;99502.59;;;16.84;37.62
8637;BME280;4356;49.068;8.658;2023-04-21T05:01:18;99512.50;;;16.97;37.75
8637;BME280;4356;49.068;8.658;2023-04-21T05:03:44;99506.31;;;16.90;37.83
8637;BME280;4356;49.068;8.658;2023-04-21T05:06:10;99505.00;;;16.92;37.62
8637;BME280;4356;49.068;8.658;2023-04-21T05:08:36;99513.34;;;16.97;37.62
8637;BME280;4356;49.068;8.658;2023-04-21T05:11:02;99516.69;;;16.99;37.63
8637;BME280;4356;49.068;8.658;2023-04-21T05:13:27;99498.59;;;16.87;37.37
8637;BME280;4356;49.068;8.658;2023-04-21T05:15:59;99521.66;;;17.02;37.43
8637;BME280;4356;49.068;8.658;2023-04-21T05:18:28;99519.19;;;16.94;37.40
8637;BME280;4356;49.068;8.658;2023-04-21T05:20:54;99521.53;;;16.91;37.32
8637;BME280;4356;49.068;8.658;2023-04-21T05:23:20;99530.84;;;17.01;37.39
8637;BME280;4356;49.068;8.658;2023-04-21T05:25:46;99523.38;;;16.97;37.30
8637;BME280;4356;49.068;8.658;2023-04-21T05:28:12;99515.06;;;16.92;37.61
8637;BME280;4356;49.068;8.658;2023-04-21T05:30:39;99527.72;;;16.98;37.75
8637;BME280;4356;49.068;8.658;2023-04-21T05:33:05;99534.22;;;16.97;37.50
8637;BME280;4356;49.068;8.658;2023-04-21T05:35:31;99557.25;;;17.12;37.40
8637;BME280;4356;49.068;8.658;2023-04-21T05:37:57;99543.75;;;17.06;37.42
8637;BME280;4356;49.068;8.658;2023-04-21T05:40:22;99550.22;;;17.05;37.27
8637;BME280;4356;49.068;8.658;2023-04-21T05:42:48;99547.72;;;17.03;37.18
8637;BME280;4356;49.068;8.658;2023-04-21T05:45:14;99563.69;;;17.18;37.87
8637;BME280;4356;49.068;8.658;2023-04-21T05:47:40;99567.03;;;17.20;37.30
8637;BME280;4356;49.068;8.658;2023-04-21T05:50:06;99570.59;;;17.20;37.45
8637;BME280;4356;49.068;8.658;2023-04-21T05:52:32;99577.66;;;17.21;37.35
8637;BME280;4356;49.068;8.658;2023-04-21T05:54:59;99579.13;;;17.24;37.20
8637;BME280;4356;49.068;8.658;2023-04-21T05:57:25;99577.44;;;17.23;37.25
8637;BME280;4356;49.068;8.658;2023-04-21T05:59:51;99569.09;;;17.24;37.29
8637;BME280;4356;49.068;8.658;2023-04-21T06:02:17;99581.59;;;17.25;37.23
8637;BME280;4356;49.068;8.658;2023-04-21T06:04:42;99558.00;;;17.26;37.35
8637;BME280;4356;49.068;8.658;2023-04-21T06:07:09;99562.53;;;17.32;37.22
8637;BME280;4356;49.068;8.658;2023-04-21T06:09:38;99563.59;;;17.31;37.47
8637;BME280;4356;49.068;8.658;2023-04-21T06:12:04;99574.63;;;17.36;37.31
8637;BME280;4356;49.068;8.658;2023-04-21T06:14:30;99575.47;;;17.36;37.25
8637;BME280;4356;49.068;8.658;2023-04-21T06:16:56;99579.41;;;17.40;37.21
8637;BME280;4356;49.068;8.658;2023-04-21T06:19:21;99570.19;;;17.41;37.26
8637;BME280;4356;49.068;8.658;2023-04-21T06:21:47;99578.72;;;17.45;37.30
8637;BME280;4356;49.068;8.658;2023-04-21T06:24:12;99569.75;;;17.44;37.34
8637;BME280;4356;49.068;8.658;2023-04-21T06:26:38;99559.47;;;17.46;37.17
8637;BME280;4356;49.068;8.658;2023-04-21T06:29:04;99540.16;;;17.36;37.47
8637;BME280;4356;49.068;8.658;2023-04-21T06:31:30;99574.91;;;17.53;37.47
8637;BME280;4356;49.068;8.658;2023-04-21T06:33:55;99569.25;;;17.54;37.22
8637;BME280;4356;49.068;8.658;2023-04-21T06:36:21;99561.09;;;17.54;37.67
8637;BME280;4356;49.068;8.658;2023-04-21T06:38:47;99571.56;;;17.57;37.43
8637;BME280;4356;49.068;8.658;2023-04-21T06:41:13;99557.13;;;17.57;37.35
8637;BME280;4356;49.068;8.658;2023-04-21T06:43:39;99557.50;;;17.60;37.36
8637;BME280;4356;49.068;8.658;2023-04-21T06:46:05;99552.31;;;17.59;37.51
8637;BME280;4356;49.068;8.658;2023-04-21T06:48:31;99547.25;;;17.62;37.21
8637;BME280;4356;49.068;8.658;2023-04-21T06:50:57;99540.13;;;17.61;37.30
8637;BME280;4356;49.068;8.658;2023-04-21T06:53:23;99536.38;;;17.62;37.53
8637;BME280;4356;49.068;8.658;2023-04-21T06:55:48;99536.75;;;17.66;37.36
8637;BME280;4356;49.068;8.658;2023-04-21T06:58:14;99528.84;;;17.64;37.41
8637;BME280;4356;49.068;8.658;2023-04-21T07:00:40;99532.78;;;17.68;37.34
8637;BME280;4356;49.068;8.658;2023-04-21T07:03:06;99530.84;;;17.69;37.34
8637;BME280;4356;49.068;8.658;2023-04-21T07:05:32;99533.81;;;17.67;37.16
8637;BME280;4356;49.068;8.658;2023-04-21T07:07:57;99539.16;;;17.74;37.19
8637;BME280;4356;49.068;8.658;2023-04-21T07:10:26;99532.78;;;17.68;37.38
8637;BME280;4356;49.068;8.658;2023-04-21T07:12:52;99548.75;;;17.76;37.16
8637;BME280;4356;49.068;8.658;2023-04-21T07:15:19;99524.22;;;17.65;37.28
8637;BME280;4356;49.068;8.658;2023-04-21T07:17:44;99546.78;;;17.83;37.40
8637;BME280;4356;49.068;8.658;2023-04-21T07:20:11;99526.78;;;17.78;37.59
8637;BME280;4356;49.068;8.658;2023-04-21T07:22:37;99531.72;;;17.87;37.22
8637;BME280;4356;49.068;8.658;2023-04-21T07:25:03;99528.16;;;17.87;37.19
8637;BME280;4356;49.068;8.658;2023-04-21T07:27:33;99528.28;;;17.92;37.17
8637;BME280;4356;49.068;8.658;2023-04-21T07:30:00;99530.56;;;17.95;37.36
8637;BME280;4356;49.068;8.658;2023-04-21T07:32:26;99524.66;;;17.98;37.17
8637;BME280;4356;49.068;8.658;2023-04-21T07:34:51;99517.97;;;18.00;37.08
8637;BME280;4356;49.068;8.658;2023-04-21T07:37:17;99512.75;;;17.99;36.99
8637;BME280;4356;49.068;8.658;2023-04-21T07:39:43;99514.31;;;18.06;37.26
8637;BME280;4356;49.068;8.658;2023-04-21T07:42:08;99507.47;;;18.04;37.18
8637;BME280;4356;49.068;8.658;2023-04-21T07:44:36;99521.34;;;18.14;37.18
8637;BME280;4356;49.068;8.658;2023-04-21T07:47:01;99520.06;;;18.16;37.37
8637;BME280;4356;49.068;8.658;2023-04-21T07:49:27;99501.31;;;18.08;37.27
8637;BME280;4356;49.068;8.658;2023-04-21T07:51:53;99519.97;;;18.23;37.38
8637;BME280;4356;49.068;8.658;2023-04-21T07:54:18;99502.91;;;18.16;36.99
8637;BME280;4356;49.068;8.658;2023-04-21T07:56:44;99512.16;;;18.26;36.99
8637;BME280;4356;49.068;8.658;2023-04-21T07:59:10;99517.97;;;18.30;37.00
8637;BME280;4356;49.068;8.658;2023-04-21T08:01:36;99507.09;;;18.30;36.97
8637;BME280;4356;49.068;8.658;2023-04-21T08:04:01;99507.63;;;18.38;37.01
8637;BME280;4356;49.068;8.658;2023-04-21T08:06:27;99510.13;;;18.40;36.83
8637;BME280;4356;49.068;8.658;2023-04-21T08:08:53;99514.88;;;18.44;36.84
8637;BME280;4356;49.068;8.658;2023-04-21T08:11:20;99506.13;;;18.42;37.08
8637;BME280;4356;49.068;8.658;2023-04-21T08:13:46;99499.22;;;18.40;37.12
8637;BME280;4356;49.068;8.658;2023-04-21T08:16:12;99504.97;;;18.50;36.88
8637;BME280;4356;49.068;8.658;2023-04-21T08:18:38;99507.84;;;18.55;37.14
8637;BME280;4356;49.068;8.658;2023-04-21T08:21:04;99508.22;;;18.59;37.17
8637;BME280;4356;49.068;8.658;2023-04-21T08:23:30;99500.63;;;18.61;37.55
8637;BME280;4356;49.068;8.658;2023-04-21T08:25:56;99494.97;;;18.62;37.22
8637;BME280;4356;49.068;8.658;2023-04-21T08:28:22;99496.97;;;18.67;37.23
8637;BME280;4356;49.068;8.658;2023-04-21T08:30:48;99494.63;;;18.70;37.35
8637;BME280;4356;49.068;8.658;2023-04-21T08:33:13;99492.84;;;18.76;37.29
8637;BME280;4356;49.068;8.658;2023-04-21T08:35:39;99470.59;;;18.67;37.41
8637;BME280;4356;49.068;8.658;2023-04-21T08:38:06;99481.66;;;18.84;37.11
8637;BME280;4356;49.068;8.658;2023-04-21T08:40:34;99468.97;;;18.78;37.13
8637;BME280;4356;49.068;8.658;2023-04-21T08:43:00;99482.38;;;18.91;37.30
8637;BME280;4356;49.068;8.658;2023-04-21T08:45:27;99484.59;;;18.94;36.66
8637;BME280;4356;49.068;8.658;2023-04-21T08:47:54;99471.00;;;18.94;36.91
8637;BME280;4356;49.068;8.658;2023-04-21T08:50:25;99484.03;;;19.03;36.95
8637;BME280;4356;49.068;8.658;2023-04-21T08:52:55;99454.41;;;18.95;36.42
8637;BME280;4356;49.068;8.658;2023-04-21T08:55:29;99469.00;;;19.12;36.72
8637;BME280;4356;49.068;8.658;2023-04-21T08:57:55;99453.59;;;19.06;36.83
8637;BME280;4356;49.068;8.658;2023-04-21T09:00:21;99475.16;;;19.19;36.58
8637;BME280;4356;49.068;8.658;2023-04-21T09:02:58;99461.88;;;19.23;36.65
8637;BME280;4356;49.068;8.658;2023-04-21T09:05:30;99460.34;;;19.27;36.90
8637;BME280;4356;49.068;8.658;2023-04-21T09:08:11;99469.88;;;19.36;36.38
8637;BME280;4356;49.068;8.658;2023-04-21T09:10:49;99456.84;;;19.38;36.37
8637;BME280;4356;49.068;8.658;2023-04-21T09:13:17;99451.63;;;19.36;36.43
8637;BME280;4356;49.068;8.658;2023-04-21T09:15:48;99454.56;;;19.46;36.39
8637;BME280;4356;49.068;8.658;2023-04-21T09:18:20;99457.63;;;19.50;36.28
8637;BME280;4356;49.068;8.658;2023-04-21T09:20:49;99451.69;;;19.53;36.04
8637;BME280;4356;49.068;8.658;2023-04-21T09:23:15;99455.38;;;19.59;35.95
8637;BME280;4356;49.068;8.658;2023-04-21T09:25:44;99458.81;;;19.66;35.94
8637;BME280;4356;49.068;8.658;2023-04-21T09:28:12;99437.97;;;19.60;36.00
8637;BME280;4356;49.068;8.658;2023-04-21T09:30:40;99448.34;;;19.74;35.86
8637;BME280;4356;49.068;8.658;2023-04-21T09:33:06;99443.25;;;19.78;35.78
8637;BME280;4356;49.068;8.658;2023-04-21T09:35:33;99440.78;;;19.76;35.86
8637;BME280;4356;49.068;8.658;2023-04-21T09:38:01;99431.16;;;19.85;35.65
8637;BME280;4356;49.068;8.658;2023-04-21T09:40:31;99429.81;;;19.88;35.64
8637;BME280;4356;49.068;8.658;2023-04-21T09:42:58;99434.56;;;19.92;35.71
8637;BME280;4356;49.068;8.658;2023-04-21T09:45:30;99440.69;;;19.99;35.32
8637;BME280;4356;49.068;8.658;2023-04-21T09:47:57;99453.84;;;20.02;35.60
8637;BME280;4356;49.068;8.658;2023-04-21T09:50:24;99425.41;;;19.98;35.71
8637;BME280;4356;49.068;8.658;2023-04-21T09:52:52;99443.16;;;20.12;35.47
8637;BME280;4356;49.068;8.658;2023-04-21T09:55:20;99439.31;;;20.13;35.68
8637;BME280;4356;49.068;8.658;2023-04-21T09:57:47;99447.41;;;20.20;35.81
8637;BME280;4356;49.068;8.658;2023-04-21T10:00:14;99431.84;;;20.20;35.44
8637;BME280;4356;49.068;8.658;2023-04-21T10:02:44;99439.31;;;20.25;35.50
8637;BME280;4356;49.068;8.658;2023-04-21T10:05:12;99440.84;;;20.32;35.47
8637;BME280;4356;49.068;8.658;2023-04-21T10:07:38;99436.75;;;20.35;35.34
8637;BME280;4356;49.068;8.658;2023-04-21T10:10:13;99425.13;;;20.39;35.58
8637;BME280;4356;49.068;8.658;2023-04-21T10:12:43;99425.22;;;20.44;35.32
8637;BME280;4356;49.068;8.658;2023-04-21T10:15:37;99421.19;;;20.47;35.33
8637;BME280;4356;49.068;8.658;2023-04-21T10:18:17;99424.56;;;20.54;35.32
8637;BME280;4356;49.068;8.658;2023-04-21T10:20:57;99427.38;;;20.59;35.44
8637;BME280;4356;49.068;8.658;2023-04-21T10:23:37;99417.31;;;20.60;35.33
8637;BME280;4356;49.068;8.658;2023-04-21T10:26:24;99409.78;;;20.67;35.28
8637;BME280;4356;49.068;8.658;2023-04-21T10:28:56;99409.25;;;20.70;35.36
8637;BME280;4356;49.068;8.658;2023-04-21T10:31:30;99395.38;;;20.71;35.48
8637;BME280;4356;49.068;8.658;2023-04-21T10:36:41;99398.28;;;20.81;35.15
8637;BME280;4356;49.068;8.658;2023-04-21T10:39:07;99399.19;;;20.87;35.16
8637;BME280;4356;49.068;8.658;2023-04-21T10:41:33;99404.97;;;20.90;35.05
8637;BME280;4356;49.068;8.658;2023-04-21T10:46:33;99393.97;;;21.02;34.93
8637;BME280;4356;49.068;8.658;2023-04-21T10:49:10;99384.13;;;21.01;35.05
8637;BME280;4356;49.068;8.658;2023-04-21T10:57:09;99382.69;;;21.15;34.87
8637;BME280;4356;49.068;8.658;2023-04-21T10:59:36;99381.94;;;21.19;35.08
8637;BME280;4356;49.068;8.658;2023-04-21T11:02:04;99374.06;;;21.23;34.87
8637;BME280;4356;49.068;8.658;2023-04-21T11:04:30;99364.47;;;21.20;34.82
8637;BME280;4356;49.068;8.658;2023-04-21T11:07:16;99378.03;;;21.32;35.11
8637;BME280;4356;49.068;8.658;2023-04-21T11:09:43;99372.88;;;21.35;34.87
8637;BME280;4356;49.068;8.658;2023-04-21T11:12:12;99360.84;;;21.36;35.20
8637;BME280;4356;49.068;8.658;2023-04-21T11:14:40;99363.63;;;21.41;34.93
8637;BME280;4356;49.068;8.658;2023-04-21T11:17:11;99354.38;;;21.42;34.91
8637;BME280;4356;49.068;8.658;2023-04-21T11:19:37;99355.53;;;21.46;35.05
8637;BME280;4356;49.068;8.658;2023-04-21T11:22:03;99364.63;;;21.52;34.80
8637;BME280;4356;49.068;8.658;2023-04-21T11:24:33;99356.47;;;21.57;34.74
8637;BME280;4356;49.068;8.658;2023-04-21T11:26:58;99349.09;;;21.58;34.50
8637;BME280;4356;49.068;8.658;2023-04-21T11:29:28;99337.38;;;21.62;34.62
8637;BME280;4356;49.068;8.658;2023-04-21T11:31:54;99348.94;;;21.69;34.72
8637;BME280;4356;49.068;8.658;2023-04-21T11:34:21;99354.47;;;21.74;34.53
8637;BME280;4356;49.068;8.658;2023-04-21T11:36:47;99345.19;;;21.75;34.51
8637;BME280;4356;49.068;8.658;2023-04-21T11:39:15;99357.91;;;21.81;34.24
8637;BME280;4356;49.068;8.658;2023-04-21T11:41:45;99347.25;;;21.85;34.50
8637;BME280;4356;49.068;8.658;2023-04-21T11:44:11;99342.91;;;21.89;34.62
8637;BME280;4356;49.068;8.658;2023-04-21T11:46:43;99350.34;;;21.93;34.38
8637;BME280;4356;49.068;8.658;2023-04-21T11:49:14;99348.75;;;21.97;34.47
8637;BME280;4356;49.068;8.658;2023-04-21T11:51:43;99349.66;;;22.03;34.41
8637;BME280;4356;49.068;8.658;2023-04-21T11:54:13;99347.72;;;22.03;34.50
8637;BME280;4356;49.068;8.658;2023-04-21T11:56:45;99341.47;;;22.08;34.28
8637;BME280;4356;49.068;8.658;2023-04-21T11:59:13;99344.22;;;22.08;34.28
8637;BME280;4356;49.068;8.658;2023-04-21T12:01:49;99330.59;;;22.13;34.35
8637;BME280;4356;49.068;8.658;2023-04-21T12:04:21;99343.22;;;22.19;34.29
8637;BME280;4356;49.068;8.658;2023-04-21T12:07:07;99350.38;;;22.25;34.20
8637;BME280;4356;49.068;8.658;2023-04-21T12:09:35;99339.22;;;22.26;33.97
8637;BME280;4356;49.068;8.658;2023-04-21T12:12:03;99331.88;;;22.32;34.35
8637;BME280;4356;49.068;8.658;2023-04-21T12:14:32;99334.03;;;22.30;34.25
8637;BME280;4356;49.068;8.658;2023-04-21T12:16:58;99337.66;;;22.35;34.28
8637;BME280;4356;49.068;8.658;2023-04-21T12:19:34;99333.03;;;22.41;34.17
8637;BME280;4356;49.068;8.658;2023-04-21T12:22:00;99328.94;;;22.43;34.08
8637;BME280;4356;49.068;8.658;2023-04-21T12:24:26;99324.88;;;22.46;34.15
8637;BME280;4356;49.068;8.658;2023-04-21T12:26:52;99318.81;;;22.44;34.55
8637;BME280;4356;49.068;8.658;2023-04-21T12:29:18;99316.66;;;22.46;34.50
8637;BME280;4356;49.068;8.658;2023-04-21T12:31:44;99317.78;;;22.50;34.47
8637;BME280;4356;49.068;8.658;2023-04-21T12:34:10;99317.50;;;22.52;34.68
8637;BME280;4356;49.068;8.658;2023-04-21T12:36:36;99311.22;;;22.51;34.70
8637;BME280;4356;49.068;8.658;2023-04-21T12:39:03;99314.50;;;22.53;34.88
8637;BME280;4356;49.068;8.658;2023-04-21T12:41:28;99316.97;;;22.55;34.60
8637;BME280;4356;49.068;8.658;2023-04-21T12:43:54;99309.81;;;22.48;34.83
8637;BME280;4356;49.068;8.658;2023-04-21T12:46:19;99308.19;;;22.52;34.71
8637;BME280;4356;49.068;8.658;2023-04-21T12:48:45;99308.53;;;22.56;34.63
8637;BME280;4356;49.068;8.658;2023-04-21T12:51:12;99318.44;;;22.62;34.45
8637;BME280;4356;49.068;8.658;2023-04-21T12:53:38;99313.00;;;22.67;34.35
8637;BME280;4356;49.068;8.658;2023-04-21T12:56:04;99311.38;;;22.71;34.81
8637;BME280;4356;49.068;8.658;2023-04-21T12:58:30;99294.13;;;22.71;34.75
8637;BME280;4356;49.068;8.658;2023-04-21T13:00:55;99313.09;;;22.82;34.70
8637;BME280;4356;49.068;8.658;2023-04-21T13:03:21;99301.88;;;22.84;34.56
8637;BME280;4356;49.068;8.658;2023-04-21T13:05:46;99293.94;;;22.87;35.10
8637;BME280;4356;49.068;8.658;2023-04-21T13:08:12;99295.34;;;22.90;34.74
8637;BME280;4356;49.068;8.658;2023-04-21T13:10:38;99279.69;;;22.85;34.52
8637;BME280;4356;49.068;8.658;2023-04-21T13:13:04;99274.47;;;22.84;34.76
8637;BME280;4356;49.068;8.658;2023-04-21T13:15:30;99290.72;;;22.95;34.89
8637;BME280;4356;49.068;8.658;2023-04-21T13:17:55;99297.88;;;23.01;34.62
8637;BME280;4356;49.068;8.658;2023-04-21T13:20:21;99269.88;;;22.94;34.54
8637;BME280;4356;49.068;8.658;2023-04-21T13:22:47;99287.47;;;23.08;34.62
8637;BME280;4356;49.068;8.658;2023-04-21T13:25:12;99278.47;;;23.13;34.50
8637;BME280;4356;49.068;8.658;2023-04-21T13:27:39;99276.56;;;23.13;34.64
8637;BME280;4356;49.068;8.658;2023-04-21T13:30:09;99272.75;;;23.19;34.50
8637;BME280;4356;49.068;8.658;2023-04-21T13:32:35;99281.81;;;23.25;34.35